createdAt,value
2018-04-26T00:01:21.159Z,4.00
2018-04-26T00:03:24.308Z,4.93
2018-04-26T00:05:28.239Z,5.30
2018-04-26T00:07:32.174Z,5.07
2018-04-26T00:09:35.373Z,2.90
2018-04-26T00:11:39.400Z,2.87
2018-04-26T00:13:43.311Z,3.57
2018-04-26T00:15:46.485Z,4.63
2018-04-26T00:17:49.932Z,3.10
2018-04-26T00:19:53.067Z,6.53
2018-04-26T00:21:56.236Z,2.57
2018-04-26T00:23:59.380Z,5.20
2018-04-26T00:26:03.288Z,2.83
2018-04-26T00:28:07.219Z,3.00
2018-04-26T00:30:11.146Z,4.17
2018-04-26T00:32:15.084Z,4.40
2018-04-26T00:34:18.224Z,4.47
2018-04-26T00:36:21.368Z,5.20
2018-04-26T00:38:24.538Z,4.80
2018-04-26T00:40:27.677Z,3.83
2018-04-26T00:42:30.819Z,4.67
2018-04-26T00:44:34.755Z,1.63
2018-04-26T00:46:37.898Z,3.17
2018-04-26T00:48:41.152Z,3.87
2018-04-26T00:50:45.091Z,4.63
2018-04-26T00:52:48.275Z,3.60
2018-04-26T00:54:52.186Z,2.73
2018-04-26T00:56:55.370Z,5.67
2018-04-26T00:58:58.534Z,6.07
2018-04-26T01:01:03.271Z,6.03
2018-04-26T01:03:08.283Z,2.37
2018-04-26T01:05:12.207Z,7.17
2018-04-26T01:07:16.140Z,5.83
2018-04-26T01:09:20.378Z,6.07
2018-04-26T01:11:24.675Z,6.13
2018-04-26T01:13:28.870Z,7.50
2018-04-26T01:15:34.131Z,5.53
2018-04-26T01:17:38.882Z,5.13
2018-04-26T01:19:42.836Z,4.70
2018-04-26T01:21:47.190Z,5.03
2018-04-26T01:23:51.599Z,4.63
2018-04-26T01:25:56.029Z,7.20
2018-04-26T01:28:00.035Z,3.40
2018-04-26T01:30:05.755Z,4.03
2018-04-26T01:32:09.799Z,7.67
2018-04-26T01:34:13.701Z,8.07
2018-04-26T01:36:35.814Z,6.57
2018-04-26T01:38:39.660Z,9.73
2018-04-26T01:40:43.787Z,4.30
2018-04-26T01:42:49.313Z,8.17
2018-04-26T01:44:54.434Z,8.30
2018-04-26T01:46:58.531Z,6.63
2018-04-26T01:49:02.564Z,6.97
2018-04-26T01:51:06.969Z,5.30
2018-04-26T01:53:12.151Z,9.90
2018-04-26T01:55:16.556Z,6.27
2018-04-26T01:57:20.712Z,6.50
2018-04-26T01:59:25.036Z,10.63
2018-04-26T02:01:29.736Z,7.30
2018-04-26T02:03:33.786Z,8.10
2018-04-26T02:05:36.958Z,8.23
2018-04-26T02:07:41.288Z,5.50
2018-04-26T02:09:45.689Z,4.43
2018-04-26T02:11:49.219Z,7.20
2018-04-26T02:13:53.107Z,7.93
2018-04-26T02:15:56.714Z,6.13
2018-04-26T02:18:01.366Z,8.23
2018-04-26T02:20:04.959Z,4.43
2018-04-26T02:22:08.830Z,8.87
2018-04-26T02:24:12.372Z,5.23
2018-04-26T02:26:15.570Z,7.80
2018-04-26T02:28:18.748Z,7.60
2018-04-26T02:30:21.937Z,8.50
2018-04-26T02:32:25.122Z,6.43
2018-04-26T02:34:28.321Z,6.60
2018-04-26T02:36:31.566Z,8.63
2018-04-26T02:38:35.487Z,7.07
2018-04-26T02:40:39.427Z,16.43
2018-04-26T02:42:42.567Z,6.57
2018-04-26T02:44:45.836Z,7.97
2018-04-26T02:46:49.778Z,6.63
2018-04-26T02:48:52.968Z,8.53
2018-04-26T02:50:56.867Z,6.13
2018-04-26T02:53:00.920Z,7.27
2018-04-26T02:55:04.949Z,5.00
2018-04-26T02:57:08.115Z,6.03
2018-04-26T02:59:11.302Z,8.90
2018-04-26T03:01:14.450Z,10.07
2018-04-26T03:03:17.601Z,8.00
2018-04-26T03:05:20.889Z,12.93
2018-04-26T03:07:24.827Z,6.70
2018-04-26T03:09:27.971Z,6.93
2018-04-26T03:11:31.540Z,7.53
2018-04-26T03:13:35.459Z,6.67
2018-04-26T03:15:39.370Z,7.00
2018-04-26T03:17:42.571Z,8.80
2018-04-26T03:19:45.718Z,7.33
2018-04-26T03:21:48.863Z,6.83
2018-04-26T03:23:52.031Z,6.23
2018-04-26T03:25:55.333Z,9.43
2018-04-26T03:27:59.238Z,6.87
2018-04-26T03:30:02.450Z,6.60
2018-04-26T03:32:06.495Z,11.47
2018-04-26T03:34:10.438Z,6.20
2018-04-26T03:36:13.579Z,8.90
2018-04-26T03:38:16.759Z,6.77
2018-04-26T03:40:19.908Z,7.37
2018-04-26T03:42:23.153Z,7.80
2018-04-26T03:44:27.098Z,6.30
2018-04-26T03:46:30.274Z,10.27
2018-04-26T03:48:33.710Z,8.40
2018-04-26T03:50:36.859Z,10.40
2018-04-26T03:52:40.040Z,10.97
2018-04-26T03:54:43.176Z,8.63
2018-04-26T03:56:47.021Z,10.27
2018-04-26T03:58:50.947Z,7.97
2018-04-26T04:01:12.707Z,7.53
2018-04-26T04:03:34.602Z,9.87
2018-04-26T04:08:25.763Z,9.90
2018-04-26T04:10:29.207Z,8.63
2018-04-26T04:12:32.891Z,8.00
2018-04-26T04:14:36.273Z,12.63
2018-04-26T04:16:39.738Z,8.53
2018-04-26T04:18:43.768Z,7.73
2018-04-26T04:20:47.675Z,8.80
2018-04-26T04:22:50.851Z,13.73
2018-04-26T04:24:54.006Z,7.20
2018-04-26T04:26:57.921Z,7.57
2018-04-26T04:29:01.881Z,11.10
2018-04-26T04:31:05.027Z,8.60
2018-04-26T04:33:08.202Z,13.70
2018-04-26T04:35:11.400Z,8.33
2018-04-26T04:37:15.308Z,8.63
2018-04-26T04:39:19.219Z,12.77
2018-04-26T04:41:22.388Z,12.00
2018-04-26T04:43:25.559Z,8.30
2018-04-26T04:45:28.730Z,11.70
2018-04-26T04:47:31.906Z,7.63
2018-04-26T04:49:35.046Z,8.20
2018-04-26T04:51:38.203Z,8.00
2018-04-26T04:53:41.371Z,9.07
2018-04-26T04:55:44.516Z,7.50
2018-04-26T04:57:47.691Z,11.03
2018-04-26T04:59:50.874Z,9.30
2018-04-26T05:01:54.088Z,11.50
2018-04-26T05:03:57.181Z,9.37
2018-04-26T05:06:00.361Z,8.73
2018-04-26T05:08:03.506Z,7.43
2018-04-26T05:10:06.650Z,11.70
2018-04-26T05:12:10.619Z,8.53
2018-04-26T05:14:13.762Z,7.63
2018-04-26T05:16:16.940Z,6.87
2018-04-26T05:18:20.098Z,5.63
2018-04-26T05:20:24.333Z,7.97
2018-04-26T05:22:28.266Z,9.83
2018-04-26T05:24:32.223Z,9.20
2018-04-26T05:26:35.395Z,9.17
2018-04-26T05:28:39.333Z,7.20
2018-04-26T05:30:42.478Z,8.23
2018-04-26T05:32:45.779Z,12.53
2018-04-26T05:34:48.943Z,10.53
2018-04-26T05:36:52.908Z,7.93
2018-04-26T05:38:56.322Z,9.97
2018-04-26T05:40:59.466Z,7.73
2018-04-26T05:43:02.611Z,9.27
2018-04-26T05:45:05.780Z,7.67
2018-04-26T05:47:08.930Z,8.77
2018-04-26T05:49:12.077Z,6.27
2018-04-26T05:51:15.259Z,7.13
2018-04-26T05:53:18.406Z,8.07
2018-04-26T05:55:21.551Z,11.90
2018-04-26T05:57:24.764Z,9.27
2018-04-26T05:59:27.911Z,6.43
2018-04-26T06:01:31.083Z,7.73
2018-04-26T06:03:34.343Z,5.47
2018-04-26T06:05:37.460Z,9.70
2018-04-26T06:07:40.643Z,6.40
2018-04-26T06:09:43.787Z,7.77
2018-04-26T06:11:46.935Z,5.53
2018-04-26T06:13:50.102Z,7.47
2018-04-26T06:15:53.239Z,3.97
2018-04-26T06:17:56.423Z,7.93
2018-04-26T06:19:59.588Z,5.67
2018-04-26T06:22:03.747Z,7.00
2018-04-26T06:24:06.894Z,6.90
2018-04-26T06:26:10.036Z,4.20
2018-04-26T06:28:13.215Z,6.10
2018-04-26T06:30:16.996Z,5.93
2018-04-26T06:32:20.166Z,5.20
2018-04-26T06:34:23.339Z,8.77
2018-04-26T06:36:27.247Z,7.43
2018-04-26T06:38:30.391Z,5.10
2018-04-26T06:40:33.573Z,6.47
2018-04-26T06:42:37.506Z,2.93
2018-04-26T06:44:41.418Z,4.37
2018-04-26T06:46:45.363Z,5.63
2018-04-26T06:48:48.536Z,5.60
2018-04-26T06:50:51.708Z,3.40
2018-04-26T06:52:54.877Z,2.10
2018-04-26T06:54:58.782Z,1.73
2018-04-26T06:57:01.932Z,0.30
2018-04-26T06:59:05.111Z,0.63
2018-04-26T07:01:09.656Z,0.50
2018-04-26T07:03:14.855Z,1.17
2018-04-26T07:05:19.012Z,1.47
2018-04-26T07:07:23.241Z,1.70
2018-04-26T07:09:27.821Z,1.87
2018-04-26T07:11:34.735Z,1.50
2018-04-26T07:13:39.921Z,0.47
2018-04-26T07:15:44.307Z,2.07
2018-04-26T07:17:47.760Z,1.40
2018-04-26T07:19:50.930Z,1.07
2018-04-26T07:21:54.105Z,2.83
2018-04-26T07:23:57.280Z,0.50
2018-04-26T07:26:00.454Z,0.90
2018-04-26T07:28:03.634Z,0.80
2018-04-26T07:30:06.807Z,1.80
2018-04-26T07:32:10.041Z,1.10
2018-04-26T07:34:14.033Z,0.83
2018-04-26T07:36:17.210Z,0.80
2018-04-26T07:38:21.142Z,0.87
2018-04-26T07:40:24.330Z,1.17
2018-04-26T07:42:28.274Z,1.30
2018-04-26T07:44:31.448Z,2.00
2018-04-26T07:46:35.419Z,1.90
2018-04-26T07:48:38.915Z,1.53
2018-04-26T07:50:42.850Z,1.93
2018-04-26T07:52:46.027Z,1.67
2018-04-26T07:54:49.202Z,2.30
2018-04-26T07:56:52.415Z,1.83
2018-04-26T07:58:55.878Z,2.63
2018-04-26T08:00:59.831Z,3.83
2018-04-26T08:03:03.011Z,6.70
2018-04-26T08:05:07.948Z,4.97
2018-04-26T08:07:11.127Z,2.83
2018-04-26T08:09:14.311Z,3.83
2018-04-26T08:11:17.499Z,3.97
2018-04-26T08:13:20.674Z,6.13
2018-04-26T08:15:23.845Z,2.83
2018-04-26T08:17:27.087Z,4.77
2018-04-26T08:19:30.532Z,4.13
2018-04-26T08:21:34.474Z,5.33
2018-04-26T08:23:37.713Z,5.77
2018-04-26T08:25:40.999Z,6.40
2018-04-26T08:27:46.487Z,4.03
2018-04-26T08:29:49.792Z,3.47
2018-04-26T08:31:52.962Z,5.50
2018-04-26T08:33:56.132Z,5.30
2018-04-26T08:35:59.299Z,7.17
2018-04-26T08:38:02.479Z,7.90
2018-04-26T08:40:06.410Z,8.73
2018-04-26T08:42:10.432Z,5.47
2018-04-26T08:44:14.377Z,7.07
2018-04-26T08:46:17.560Z,6.90
2018-04-26T08:48:21.498Z,8.37
2018-04-26T08:50:24.752Z,10.10
2018-04-26T08:52:28.001Z,7.67
2018-04-26T08:54:31.144Z,7.93
2018-04-26T08:56:34.327Z,9.47
2018-04-26T08:58:38.263Z,10.67
2018-04-26T09:00:41.436Z,11.67
2018-04-26T09:02:44.615Z,9.03
2018-04-26T09:04:47.851Z,7.90
2018-04-26T09:06:51.057Z,10.63
2018-04-26T09:08:54.215Z,12.73
2018-04-26T09:10:57.383Z,10.07
2018-04-26T09:13:00.580Z,8.77
2018-04-26T09:15:03.765Z,8.87
2018-04-26T09:17:06.960Z,12.07
2018-04-26T09:19:10.134Z,9.93
2018-04-26T09:21:14.275Z,5.53
2018-04-26T09:23:17.443Z,8.77
2018-04-26T09:25:20.627Z,8.23
2018-04-26T09:27:23.791Z,7.87
2018-04-26T09:29:27.722Z,8.90
2018-04-26T09:31:31.320Z,9.50
2018-04-26T09:33:34.486Z,8.30
2018-04-26T09:35:37.664Z,8.63
2018-04-26T09:37:40.831Z,7.47
2018-04-26T09:39:45.502Z,9.27
2018-04-26T09:41:49.435Z,6.53
2018-04-26T09:43:52.788Z,8.20
2018-04-26T09:45:56.170Z,9.07
2018-04-26T09:47:59.338Z,6.20
2018-04-26T09:50:03.271Z,9.13
2018-04-26T09:52:08.239Z,6.10
2018-04-26T09:54:11.411Z,4.23
2018-04-26T09:56:14.645Z,6.80
2018-04-26T09:58:18.589Z,6.43
2018-04-26T10:00:27.381Z,9.97
2018-04-26T10:02:32.343Z,4.97
2018-04-26T10:04:41.574Z,6.20
2018-04-26T10:06:51.058Z,6.07
2018-04-26T10:08:55.200Z,5.00
2018-04-26T10:10:58.449Z,6.70
2018-04-26T10:13:01.925Z,11.20
2018-04-26T10:15:05.331Z,9.80
2018-04-26T10:17:09.263Z,7.43
2018-04-26T10:19:12.442Z,9.10
2018-04-26T10:21:15.618Z,6.83
2018-04-26T10:23:18.797Z,6.90
2018-04-26T10:25:22.698Z,5.60
2018-04-26T10:27:25.894Z,6.00
2018-04-26T10:29:29.092Z,6.47
2018-04-26T10:31:32.282Z,4.77
2018-04-26T10:33:35.455Z,5.83
2018-04-26T10:35:38.643Z,7.10
2018-04-26T10:37:42.587Z,6.83
2018-04-26T10:39:45.805Z,9.07
2018-04-26T10:41:48.982Z,8.70
2018-04-26T10:43:52.964Z,7.47
2018-04-26T10:45:56.247Z,9.03
2018-04-26T10:47:59.555Z,5.97
2018-04-26T10:50:02.731Z,6.30
2018-04-26T10:52:06.665Z,5.53
2018-04-26T10:54:10.679Z,4.97
2018-04-26T10:56:13.861Z,3.63
2018-04-26T10:58:17.318Z,5.37
2018-04-26T11:00:21.645Z,6.37
2018-04-26T11:02:26.907Z,4.93
2018-04-26T11:04:32.709Z,4.97
2018-04-26T11:06:36.608Z,8.00
2018-04-26T11:08:40.540Z,6.87
2018-04-26T11:10:46.686Z,5.57
2018-04-26T11:12:54.232Z,6.63
2018-04-26T11:14:59.381Z,6.67
2018-04-26T11:17:06.018Z,5.83
2018-04-26T11:19:12.237Z,7.20
2018-04-26T11:21:17.589Z,5.73
2018-04-26T11:23:21.959Z,5.13
2018-04-26T11:25:25.173Z,5.47
2018-04-26T11:27:28.346Z,5.53
2018-04-26T11:29:32.290Z,8.03
2018-04-26T11:31:35.476Z,6.37
2018-04-26T11:33:39.419Z,4.57
2018-04-26T11:35:42.685Z,8.90
2018-04-26T11:37:46.635Z,5.13
2018-04-26T11:39:50.566Z,4.83
2018-04-26T11:41:53.731Z,7.03
2018-04-26T11:43:56.926Z,6.60
2018-04-26T11:46:00.094Z,5.93
2018-04-26T11:48:04.047Z,4.77
2018-04-26T11:50:07.241Z,6.40
2018-04-26T11:52:10.747Z,6.80
2018-04-26T11:54:13.931Z,11.50
2018-04-26T11:56:17.207Z,5.93
2018-04-26T11:58:21.103Z,5.83
2018-04-26T12:00:24.300Z,6.60
2018-04-26T12:02:27.503Z,8.00
2018-04-26T12:04:30.831Z,7.43
2018-04-26T12:06:34.010Z,6.07
2018-04-26T12:08:37.941Z,4.63
2018-04-26T12:10:42.192Z,4.20
2018-04-26T12:12:45.396Z,3.83
2018-04-26T12:14:48.580Z,3.00
2018-04-26T12:16:52.518Z,3.50
2018-04-26T12:18:56.447Z,3.47
2018-04-26T12:21:00.423Z,4.07
2018-04-26T12:23:03.601Z,6.27
2018-04-26T12:25:06.776Z,4.07
2018-04-26T12:27:10.724Z,3.90
2018-04-26T12:29:13.988Z,4.80
2018-04-26T12:31:17.872Z,4.13
2018-04-26T12:33:21.054Z,3.47
2018-04-26T12:35:41.669Z,6.90
2018-04-26T12:37:45.599Z,4.97
2018-04-26T12:39:48.803Z,5.57
2018-04-26T12:41:52.925Z,5.27
2018-04-26T12:43:56.862Z,4.00
2018-04-26T12:46:00.044Z,3.70
2018-04-26T12:48:03.230Z,3.23
2018-04-26T12:50:06.408Z,6.70
2018-04-26T12:52:09.586Z,5.17
2018-04-26T12:54:13.525Z,4.23
2018-04-26T12:56:16.706Z,6.00
2018-04-26T12:58:19.886Z,6.63
2018-04-26T13:00:23.076Z,4.63
2018-04-26T13:02:26.267Z,5.07
2018-04-26T13:04:29.864Z,6.40
2018-04-26T13:06:33.800Z,5.37
2018-04-26T13:08:36.964Z,6.63
2018-04-26T13:10:40.138Z,5.67
2018-04-26T13:12:43.319Z,4.03
2018-04-26T13:14:47.247Z,5.20
2018-04-26T13:16:50.424Z,4.90
2018-04-26T13:18:53.602Z,3.77
2018-04-26T13:20:57.546Z,4.17
2018-04-26T13:23:00.999Z,6.03
2018-04-26T13:25:04.968Z,5.03
2018-04-26T13:27:08.913Z,3.87
2018-04-26T13:29:12.102Z,6.20
2018-04-26T13:31:15.275Z,4.43
2018-04-26T13:33:18.436Z,3.93
2018-04-26T13:35:21.628Z,3.23
2018-04-26T13:37:24.819Z,5.00
2018-04-26T13:39:28.760Z,3.43
2018-04-26T13:41:31.933Z,7.07
2018-04-26T13:43:35.435Z,2.80
2018-04-26T13:45:39.370Z,5.93
2018-04-26T13:47:43.308Z,4.30
2018-04-26T13:49:46.478Z,4.43
2018-04-26T13:51:49.652Z,2.70
2018-04-26T13:53:52.823Z,4.10
2018-04-26T13:55:55.998Z,6.37
2018-04-26T13:57:59.200Z,5.33
2018-04-26T14:00:02.361Z,3.00
2018-04-26T14:02:05.522Z,4.63
2018-04-26T14:04:08.825Z,4.30
2018-04-26T14:06:12.013Z,4.23
2018-04-26T14:08:15.230Z,2.87
2018-04-26T14:10:18.400Z,4.20
2018-04-26T14:12:21.574Z,6.63
2018-04-26T14:14:24.751Z,4.00
2018-04-26T14:16:28.223Z,2.73
2018-04-26T14:18:32.415Z,3.07
2018-04-26T14:20:35.588Z,2.57
2018-04-26T14:22:39.601Z,3.50
2018-04-26T14:24:42.774Z,5.03
2018-04-26T14:26:45.948Z,4.57
2018-04-26T14:28:49.128Z,8.27
2018-04-26T14:30:52.340Z,2.73
2018-04-26T14:32:55.523Z,3.33
2018-04-26T14:34:59.464Z,3.93
2018-04-26T14:37:03.456Z,5.03
2018-04-26T14:39:06.586Z,4.33
2018-04-26T14:41:10.531Z,6.87
2018-04-26T14:43:13.721Z,10.13
2018-04-26T14:45:17.668Z,4.93
2018-04-26T14:47:20.839Z,5.03
2018-04-26T14:49:24.011Z,3.07
2018-04-26T14:51:27.183Z,3.90
2018-04-26T14:53:32.413Z,7.53
2018-04-26T14:55:36.351Z,3.27
2018-04-26T14:57:40.295Z,3.17
2018-04-26T14:59:43.457Z,2.87
2018-04-26T15:01:46.654Z,4.90
2018-04-26T15:03:50.590Z,2.90
2018-04-26T15:05:54.032Z,2.70
2018-04-26T15:07:58.526Z,3.63
2018-04-26T15:10:01.715Z,3.70
2018-04-26T15:12:04.887Z,5.27
2018-04-26T15:14:09.030Z,4.20
2018-04-26T15:16:12.206Z,3.33
2018-04-26T15:18:15.387Z,4.03
2018-04-26T15:20:18.583Z,2.63
2018-04-26T15:22:21.758Z,3.97
2018-04-26T15:24:25.732Z,2.87
2018-04-26T15:26:28.922Z,3.47
2018-04-26T15:28:32.129Z,4.50
2018-04-26T15:30:35.307Z,4.73
2018-04-26T15:32:39.244Z,3.47
2018-04-26T15:34:42.516Z,10.97
2018-04-26T15:36:45.825Z,6.83
2018-04-26T15:38:49.039Z,4.23
2018-04-26T15:40:52.691Z,5.93
2018-04-26T15:42:55.860Z,3.53
2018-04-26T15:44:59.034Z,4.00
2018-04-26T15:47:02.208Z,3.17
2018-04-26T15:49:06.144Z,3.10
2018-04-26T15:51:09.322Z,2.97
2018-04-26T15:53:30.571Z,3.77
2018-04-26T15:55:51.544Z,3.93
2018-04-26T15:58:13.499Z,8.93
2018-04-26T16:00:41.128Z,6.13
2018-04-26T16:03:04.289Z,5.23
2018-04-26T16:05:27.134Z,4.07
2018-04-26T16:07:55.974Z,4.17
2018-04-26T16:13:23.496Z,3.13
2018-04-26T16:15:44.515Z,3.17
2018-04-26T16:21:13.599Z,2.47
2018-04-26T16:23:40.264Z,2.97
2018-04-26T16:26:01.243Z,3.93
2018-04-26T16:31:23.197Z,2.87
2018-04-26T16:36:36.309Z,2.40
2018-04-26T16:41:36.231Z,1.53
2018-04-26T16:43:39.743Z,3.07
2018-04-26T16:45:42.911Z,3.67
2018-04-26T16:47:46.076Z,3.97
2018-04-26T16:49:52.294Z,4.33
2018-04-26T16:51:55.600Z,1.77
2018-04-26T16:53:58.767Z,2.10
2018-04-26T16:56:01.935Z,3.20
2018-04-26T16:58:05.119Z,3.73
2018-04-26T17:00:08.292Z,2.50
2018-04-26T17:02:12.240Z,4.73
2018-04-26T17:04:15.418Z,2.93
2018-04-26T17:06:18.618Z,1.70
2018-04-26T17:08:21.810Z,2.87
2018-04-26T17:10:24.986Z,1.27
2018-04-26T17:12:28.609Z,3.63
2018-04-26T17:14:31.828Z,3.37
2018-04-26T17:16:34.998Z,6.30
2018-04-26T17:18:38.935Z,2.73
2018-04-26T17:20:42.351Z,1.67
2018-04-26T17:22:45.540Z,1.20
2018-04-26T17:24:49.473Z,5.97
2018-04-26T17:26:53.474Z,2.10
2018-04-26T17:28:56.647Z,4.77
2018-04-26T17:30:59.819Z,3.37
2018-04-26T17:33:03.764Z,4.77
2018-04-26T17:35:06.947Z,2.37
2018-04-26T17:37:10.887Z,5.37
2018-04-26T17:39:14.096Z,2.27
2018-04-26T17:41:17.270Z,1.93
2018-04-26T17:43:20.448Z,2.90
2018-04-26T17:45:23.624Z,1.63
2018-04-26T17:47:26.804Z,3.70
2018-04-26T17:49:29.979Z,2.27
2018-04-26T17:51:33.168Z,2.33
2018-04-26T17:53:36.622Z,2.43
2018-04-26T17:55:39.857Z,3.77
2018-04-26T17:57:43.791Z,2.43
2018-04-26T17:59:47.728Z,1.97
2018-04-26T18:01:50.930Z,4.33
2018-04-26T18:03:54.102Z,3.73
2018-04-26T18:05:57.282Z,1.60
2018-04-26T18:08:00.760Z,3.10
2018-04-26T18:10:04.610Z,4.23
2018-04-26T18:12:07.782Z,3.00
2018-04-26T18:14:11.731Z,2.80
2018-04-26T18:16:14.903Z,9.63
2018-04-26T18:18:18.844Z,4.00
2018-04-26T18:20:22.800Z,3.57
2018-04-26T18:22:26.020Z,2.37
2018-04-26T18:24:29.207Z,3.63
2018-04-26T18:26:32.391Z,2.43
2018-04-26T18:28:36.391Z,2.80
2018-04-26T18:30:39.524Z,1.83
2018-04-26T18:32:43.462Z,2.37
2018-04-26T18:34:46.640Z,2.23
2018-04-26T18:36:49.806Z,3.03
2018-04-26T18:38:52.979Z,1.40
2018-04-26T18:40:56.928Z,2.47
2018-04-26T18:43:00.877Z,2.20
2018-04-26T18:45:04.348Z,5.23
2018-04-26T18:47:08.591Z,2.33
2018-04-26T18:49:11.769Z,5.30
2018-04-26T18:51:15.208Z,2.37
2018-04-26T18:53:19.127Z,3.93
2018-04-26T18:55:23.091Z,3.80
2018-04-26T18:57:26.482Z,4.47
2018-04-26T18:59:29.782Z,1.93
2018-04-26T19:01:33.711Z,2.80
2018-04-26T19:03:37.224Z,1.60
2018-04-26T19:05:40.397Z,5.33
2018-04-26T19:07:43.587Z,3.33
2018-04-26T19:09:47.053Z,2.00
2018-04-26T19:11:50.459Z,4.17
2018-04-26T19:13:54.400Z,3.13
2018-04-26T19:15:57.633Z,3.07
2018-04-26T19:18:01.598Z,1.97
2018-04-26T19:20:04.779Z,2.67
2018-04-26T19:22:08.740Z,3.40
2018-04-26T19:24:11.965Z,2.83
2018-04-26T19:26:16.033Z,2.47
2018-04-26T19:28:19.978Z,3.33
2018-04-26T19:30:23.151Z,3.77
2018-04-26T19:32:26.447Z,4.30
2018-04-26T19:34:29.749Z,3.00
2018-04-26T19:36:33.683Z,2.80
2018-04-26T19:38:38.507Z,2.17
2018-04-26T19:40:45.650Z,3.80
2018-04-26T19:42:49.018Z,2.37
2018-04-26T19:44:52.195Z,2.57
2018-04-26T19:46:55.377Z,1.60
2018-04-26T19:48:58.591Z,2.47
2018-04-26T19:51:01.760Z,2.87
2018-04-26T19:53:06.007Z,2.57
2018-04-26T19:55:09.939Z,2.37
2018-04-26T19:57:13.116Z,2.73
2018-04-26T19:59:16.290Z,1.63
2018-04-26T20:01:19.511Z,2.40
2018-04-26T20:03:22.743Z,4.23
2018-04-26T20:05:25.922Z,3.17
2018-04-26T20:07:29.100Z,3.47
2018-04-26T20:09:32.272Z,1.87
2018-04-26T20:11:35.455Z,3.93
2018-04-26T20:13:38.635Z,1.73
2018-04-26T20:15:41.813Z,4.33
2018-04-26T20:17:47.785Z,2.50
2018-04-26T20:19:52.934Z,2.07
2018-04-26T20:21:56.598Z,1.93
2018-04-26T20:23:59.769Z,4.30
2018-04-26T20:26:03.704Z,1.93
2018-04-26T20:28:06.996Z,1.40
2018-04-26T20:30:10.953Z,3.20
2018-04-26T20:32:14.118Z,2.17
2018-04-26T20:34:20.364Z,2.63
2018-04-26T20:36:24.132Z,5.00
2018-04-26T20:38:27.354Z,1.90
2018-04-26T20:40:30.550Z,1.77
2018-04-26T20:42:34.488Z,1.80
2018-04-26T20:44:48.688Z,5.50
2018-04-26T20:46:51.868Z,5.60
2018-04-26T20:48:55.039Z,1.77
2018-04-26T20:50:58.210Z,1.83
2018-04-26T20:53:01.379Z,1.20
2018-04-26T20:55:06.058Z,6.57
2018-04-26T20:57:09.220Z,3.40
2018-04-26T20:59:13.160Z,3.27
2018-04-26T21:01:16.791Z,1.73
2018-04-26T21:03:21.334Z,1.93
2018-04-26T21:05:24.791Z,2.70
2018-04-26T21:07:28.988Z,2.00
2018-04-26T21:09:32.132Z,1.63
2018-04-26T21:11:36.806Z,3.57
2018-04-26T21:13:40.762Z,3.23
2018-04-26T21:15:43.926Z,2.70
2018-04-26T21:17:47.862Z,3.80
2018-04-26T21:19:51.055Z,3.37
2018-04-26T21:21:54.225Z,1.73
2018-04-26T21:23:57.413Z,2.50
2018-04-26T21:26:01.644Z,1.63
2018-04-26T21:28:04.835Z,2.80
2018-04-26T21:30:08.237Z,1.93
2018-04-26T21:32:12.184Z,3.10
2018-04-26T21:34:15.359Z,1.77
2018-04-26T21:36:18.534Z,2.47
2018-04-26T21:38:21.714Z,2.00
2018-04-26T21:40:24.879Z,2.13
2018-04-26T21:42:28.047Z,1.60
2018-04-26T21:44:31.191Z,2.10
2018-04-26T21:46:35.866Z,3.87
2018-04-26T21:48:39.008Z,2.07
2018-04-26T21:50:48.206Z,2.03
2018-04-26T21:52:57.708Z,1.97
2018-04-26T21:55:06.428Z,2.57
2018-04-26T21:57:15.273Z,2.30
2018-04-26T21:59:23.992Z,1.67
2018-04-26T22:01:32.633Z,1.63
2018-04-26T22:03:40.619Z,1.23
2018-04-26T22:05:44.530Z,2.40
2018-04-26T22:07:47.696Z,2.47
2018-04-26T22:09:50.839Z,1.97
2018-04-26T22:11:54.012Z,1.30
2018-04-26T22:13:57.155Z,1.83
2018-04-26T22:16:00.305Z,1.83
2018-04-26T22:18:03.470Z,3.47
2018-04-26T22:20:06.640Z,1.50
2018-04-26T22:22:09.771Z,1.53
2018-04-26T22:24:12.943Z,2.60
2018-04-26T22:26:16.080Z,3.27
2018-04-26T22:28:19.235Z,1.53
2018-04-26T22:30:22.398Z,1.97
2018-04-26T22:32:25.536Z,2.60
2018-04-26T22:34:29.439Z,2.80
2018-04-26T22:36:32.617Z,2.83
2018-04-26T22:38:35.805Z,1.00
2018-04-26T22:40:38.942Z,2.03
2018-04-26T22:42:42.084Z,2.20
2018-04-26T22:44:45.298Z,1.57
2018-04-26T22:46:49.200Z,2.13
2018-04-26T22:48:52.439Z,2.97
2018-04-26T22:50:56.376Z,2.77
2018-04-26T22:52:59.516Z,2.20
2018-04-26T22:55:02.655Z,1.20
2018-04-26T22:57:05.832Z,3.27
2018-04-26T22:59:08.975Z,1.07
2018-04-26T23:01:12.116Z,2.63
2018-04-26T23:03:15.280Z,1.13
2018-04-26T23:05:18.419Z,2.47
2018-04-26T23:07:22.326Z,2.27
2018-04-26T23:09:25.507Z,0.80
2018-04-26T23:11:28.642Z,1.43
2018-04-26T23:13:31.826Z,1.40
2018-04-26T23:15:35.014Z,3.00
2018-04-26T23:17:38.156Z,2.03
2018-04-26T23:19:41.304Z,4.10
2018-04-26T23:21:44.477Z,1.50
2018-04-26T23:23:47.656Z,2.60
2018-04-26T23:25:50.808Z,2.33
2018-04-26T23:27:54.739Z,1.40
2018-04-26T23:29:58.674Z,2.23
2018-04-26T23:32:02.570Z,0.80
2018-04-26T23:34:06.502Z,3.37
2018-04-26T23:36:09.637Z,2.03
2018-04-26T23:38:12.790Z,2.30
2018-04-26T23:40:15.954Z,2.23
2018-04-26T23:42:19.099Z,1.73
2018-04-26T23:44:22.271Z,2.67
2018-04-26T23:46:25.767Z,1.87
2018-04-26T23:48:29.670Z,2.10
2018-04-26T23:50:32.814Z,2.07
2018-04-26T23:52:35.966Z,2.03
2018-04-26T23:54:39.155Z,2.23
2018-04-26T23:56:42.686Z,1.83
2018-04-26T23:58:46.111Z,1.27
